Time;durP1;ratioP1;P1;durP2;ratioP2;P2;SDS_P1;SDS_P2;PMS_P1;PMS_P2;Temp;Humidity;BMP_temperature;BMP_pressure;BME280_temperature;BME280_humidity;BME280_pressure;Samples;Min_cycle;Max_cycle;Signal;HPM_P1;HPM_P2
2023/12/16 00:00:28;;;;;;;2.05;1.95;;;5.70;99.90;;;;;;5098953;28;20246;-78
2023/12/16 00:03:01;;;;;;;2.38;2.28;;;5.70;99.90;;;;;;5098786;28;20224;-77
2023/12/16 00:05:33;;;;;;;1.80;1.80;;;5.70;99.90;;;;;;5098651;28;20725;-78
2023/12/16 00:08:11;;;;;;;2.40;2.30;;;5.60;99.90;;;;;;5102347;28;20600;-77
2023/12/16 00:10:39;;;;;;;1.75;1.65;;;5.60;99.90;;;;;;5097923;28;20277;-78
2023/12/16 00:13:17;;;;;;;2.15;2.05;;;5.60;99.90;;;;;;5099864;27;20217;-77
2023/12/16 00:15:46;;;;;;;2.10;2.00;;;5.60;99.90;;;;;;5096560;28;20278;-77
2023/12/16 00:18:21;;;;;;;2.17;2.08;;;5.60;99.90;;;;;;5097924;28;20236;-77
2023/12/16 00:23:36;;;;;;;2.05;1.95;;;5.50;99.90;;;;;;5104141;27;20247;-77
2023/12/16 00:26:07;;;;;;;1.42;1.42;;;5.50;99.90;;;;;;5100064;28;20782;-77
2023/12/16 00:28:35;;;;;;;2.00;1.90;;;5.50;99.90;;;;;;5099026;27;20221;-77
2023/12/16 00:33:50;;;;;;;2.22;2.13;;;5.40;99.90;;;;;;5096899;28;20231;-78
2023/12/16 00:36:30;;;;;;;2.45;2.35;;;5.30;99.90;;;;;;5100475;28;20224;-77
2023/12/16 00:39:01;;;;;;;2.15;2.05;;;5.30;99.90;;;;;;5098731;28;20217;-77
2023/12/16 00:41:31;;;;;;;2.40;2.30;;;5.30;99.90;;;;;;5097319;28;20235;-77
2023/12/16 00:44:02;;;;;;;2.10;2.00;;;5.30;99.90;;;;;;5072972;28;20230;-77
2023/12/16 00:49:21;;;;;;;2.08;1.98;;;5.40;99.90;;;;;;5101896;28;20548;-77
2023/12/16 00:54:41;;;;;;;2.20;2.10;;;5.40;99.90;;;;;;5102406;28;20592;-77
2023/12/16 00:59:58;;;;;;;2.28;2.17;;;5.30;99.90;;;;;;5103372;28;20208;-78
2023/12/16 01:05:22;;;;;;;2.13;2.03;;;5.30;99.90;;;;;;5102460;28;20220;-78
2023/12/16 01:07:50;;;;;;;2.30;2.20;;;5.30;99.90;;;;;;5100951;28;20227;-77
2023/12/16 01:13:00;;;;;;;2.08;1.98;;;5.20;99.90;;;;;;5095134;27;20220;-78
2023/12/16 01:15:30;;;;;;;2.03;1.92;;;5.20;99.90;;;;;;5089494;28;20218;-76
2023/12/16 01:18:03;;;;;;;2.47;2.38;;;5.20;99.90;;;;;;5093293;28;20312;-77
2023/12/16 01:20:32;;;;;;;1.73;1.73;;;5.20;99.90;;;;;;5105796;28;20198;-77
2023/12/16 01:22:58;;;;;;;2.17;2.10;;;5.20;99.90;;;;;;5107639;28;20232;-76
2023/12/16 01:25:27;;;;;;;1.90;1.90;;;5.20;99.90;;;;;;5106464;28;20254;-76
2023/12/16 01:27:54;;;;;;;2.28;2.17;;;5.30;99.90;;;;;;5097169;27;20247;-76
2023/12/16 01:30:24;;;;;;;2.05;1.95;;;5.30;99.90;;;;;;5086726;28;20202;-76
2023/12/16 01:32:51;;;;;;;2.00;1.90;;;5.30;99.90;;;;;;5089980;28;20224;-76
2023/12/16 01:35:18;;;;;;;2.13;2.03;;;5.30;99.90;;;;;;5105337;27;20221;-76
2023/12/16 01:37:45;;;;;;;1.92;1.92;;;5.30;99.90;;;;;;5105293;27;20241;-77
2023/12/16 01:40:13;;;;;;;2.00;1.90;;;5.30;99.90;;;;;;5107442;28;20215;-76
2023/12/16 01:42:41;;;;;;;2.20;2.10;;;5.30;99.90;;;;;;5108250;28;20220;-76
2023/12/16 01:45:09;;;;;;;2.60;2.50;;;5.20;99.90;;;;;;5105826;28;20220;-76
2023/12/16 01:47:37;;;;;;;2.13;2.03;;;5.20;99.90;;;;;;5107614;27;20645;-78
2023/12/16 01:50:05;;;;;;;2.20;2.10;;;5.10;99.90;;;;;;5108320;27;20290;-76
2023/12/16 01:52:32;;;;;;;2.45;2.35;;;5.10;99.90;;;;;;5105565;28;20217;-77
2023/12/16 01:55:00;;;;;;;2.20;2.10;;;5.00;99.90;;;;;;5108912;28;20232;-76
2023/12/16 01:57:27;;;;;;;2.25;2.15;;;5.00;99.90;;;;;;5105305;28;20227;-79
2023/12/16 01:59:56;;;;;;;2.10;2.00;;;5.00;99.90;;;;;;5104157;28;20201;-77
2023/12/16 02:02:26;;;;;;;2.42;2.33;;;5.00;99.90;;;;;;5105733;28;20217;-77
2023/12/16 02:04:53;;;;;;;2.50;2.40;;;4.90;99.90;;;;;;5108732;28;20235;-77
2023/12/16 02:07:20;;;;;;;2.53;2.42;;;4.90;99.90;;;;;;5103085;28;20399;-77
2023/12/16 02:09:49;;;;;;;2.38;2.28;;;4.80;99.90;;;;;;5106805;27;20228;-77
2023/12/16 02:12:16;;;;;;;2.38;2.28;;;4.70;99.90;;;;;;5105666;28;20221;-78
2023/12/16 02:14:43;;;;;;;2.28;2.17;;;4.70;99.90;;;;;;5106195;28;20275;-77
2023/12/16 02:17:12;;;;;;;2.35;2.25;;;4.60;99.90;;;;;;5103907;27;20229;-77
2023/12/16 02:19:40;;;;;;;2.22;2.13;;;4.70;99.90;;;;;;5101932;28;20208;-77
2023/12/16 02:22:07;;;;;;;2.25;2.15;;;4.80;99.90;;;;;;5107328;27;20210;-78
2023/12/16 02:24:38;;;;;;;2.33;2.22;;;4.80;99.90;;;;;;5107443;28;20306;-76
2023/12/16 02:27:05;;;;;;;2.28;2.17;;;4.90;99.90;;;;;;5103398;28;20201;-77
2023/12/16 02:29:32;;;;;;;2.47;2.38;;;4.90;99.90;;;;;;5116962;28;20205;-77
2023/12/16 02:31:59;;;;;;;2.58;2.47;;;4.90;99.90;;;;;;5114291;28;20216;-77
2023/12/16 02:34:26;;;;;;;2.13;2.03;;;5.00;99.90;;;;;;5107520;27;20292;-77
2023/12/16 02:36:54;;;;;;;2.22;2.13;;;5.00;99.90;;;;;;5105793;27;20229;-77
2023/12/16 02:39:21;;;;;;;1.92;1.88;;;5.00;99.90;;;;;;5104273;28;20210;-76
2023/12/16 02:41:50;;;;;;;1.95;1.85;;;5.00;99.90;;;;;;5107287;27;20197;-77
2023/12/16 02:44:17;;;;;;;2.17;2.08;;;5.00;99.90;;;;;;5098443;28;20221;-77
2023/12/16 02:46:44;;;;;;;2.22;2.13;;;4.90;99.90;;;;;;5100222;28;20599;-76
2023/12/16 02:49:11;;;;;;;2.20;2.10;;;4.90;99.90;;;;;;5101158;27;20224;-77
2023/12/16 02:51:38;;;;;;;2.05;2.00;;;5.00;99.90;;;;;;5100129;28;20295;-77
2023/12/16 02:54:05;;;;;;;2.20;2.10;;;4.90;99.90;;;;;;5104408;27;20216;-77
2023/12/16 02:56:32;;;;;;;2.30;2.20;;;4.90;99.90;;;;;;5100238;28;20216;-76
2023/12/16 02:59:00;;;;;;;2.20;2.10;;;4.90;99.90;;;;;;5082297;28;20229;-77
2023/12/16 03:01:27;;;;;;;2.20;2.10;;;5.00;99.90;;;;;;5078894;28;20194;-77
2023/12/16 03:03:54;;;;;;;2.28;2.17;;;5.00;99.90;;;;;;5097527;28;20221;-77
2023/12/16 03:06:21;;;;;;;2.05;2.05;;;4.90;99.90;;;;;;5103170;28;20228;-77
2023/12/16 03:08:49;;;;;;;2.47;2.38;;;4.80;99.90;;;;;;5102649;28;20259;-77
2023/12/16 03:11:16;;;;;;;2.20;2.10;;;4.70;99.90;;;;;;5102672;28;20212;-76
2023/12/16 03:13:43;;;;;;;2.08;1.98;;;4.70;99.90;;;;;;5103249;28;20212;-76
2023/12/16 03:16:13;;;;;;;2.53;2.42;;;4.70;99.90;;;;;;5104035;28;20221;-76
2023/12/16 03:18:40;;;;;;;2.13;2.03;;;4.60;99.90;;;;;;5102189;28;20722;-77
2023/12/16 03:21:07;;;;;;;2.35;2.25;;;4.70;99.90;;;;;;5105486;27;20204;-77
2023/12/16 03:23:35;;;;;;;2.40;2.30;;;4.60;99.90;;;;;;5105723;27;20216;-78
2023/12/16 03:26:02;;;;;;;2.45;2.35;;;4.60;99.90;;;;;;5095600;28;20229;-77
2023/12/16 03:28:29;;;;;;;2.20;2.10;;;4.60;99.90;;;;;;5102765;27;20578;-78
2023/12/16 03:30:56;;;;;;;1.90;1.80;;;4.60;99.90;;;;;;5103040;28;20786;-77
2023/12/16 03:33:25;;;;;;;1.58;1.58;;;4.60;99.90;;;;;;5103753;28;20242;-76
2023/12/16 03:35:52;;;;;;;2.42;2.33;;;4.60;99.90;;;;;;5104612;27;20223;-77
2023/12/16 03:38:19;;;;;;;2.05;1.95;;;4.60;99.90;;;;;;5102154;28;20220;-77
2023/12/16 03:40:45;;;;;;;2.00;2.00;;;4.60;99.90;;;;;;5104002;28;20201;-77
2023/12/16 03:43:12;;;;;;;2.40;2.30;;;4.70;99.90;;;;;;5096056;28;20240;-77
2023/12/16 03:45:39;;;;;;;2.45;2.35;;;4.80;99.90;;;;;;5101349;28;20221;-77
2023/12/16 03:48:06;;;;;;;2.28;2.17;;;4.80;99.90;;;;;;5095367;28;20272;-78
2023/12/16 03:50:35;;;;;;;2.00;2.00;;;4.70;99.90;;;;;;5102283;28;20201;-77
2023/12/16 03:53:02;;;;;;;2.00;2.00;;;4.70;99.90;;;;;;5103199;27;20220;-79
2023/12/16 03:55:29;;;;;;;2.20;2.10;;;4.60;99.90;;;;;;5097999;28;20217;-77
2023/12/16 03:57:56;;;;;;;2.33;2.22;;;4.60;99.90;;;;;;5098426;28;20221;-77
2023/12/16 04:00:23;;;;;;;2.20;2.10;;;4.60;99.90;;;;;;5098256;28;20200;-78
2023/12/16 04:02:50;;;;;;;1.98;1.92;;;4.60;99.90;;;;;;5095346;28;20237;-77
2023/12/16 04:05:17;;;;;;;2.38;2.28;;;4.60;99.90;;;;;;5100413;28;20776;-77
2023/12/16 04:07:46;;;;;;;2.28;2.17;;;4.60;99.90;;;;;;5097336;28;20215;-76
2023/12/16 04:10:13;;;;;;;2.20;2.10;;;4.60;99.90;;;;;;5101351;28;20196;-77
2023/12/16 04:12:40;;;;;;;2.00;1.90;;;4.50;99.90;;;;;;5100553;28;20215;-76
2023/12/16 04:15:08;;;;;;;2.30;2.20;;;4.50;99.90;;;;;;5101560;28;20347;-77
2023/12/16 04:17:35;;;;;;;2.20;2.10;;;4.50;99.90;;;;;;5099296;27;20228;-77
2023/12/16 04:20:02;;;;;;;2.03;1.92;;;4.50;99.90;;;;;;5099245;28;20212;-77
2023/12/16 04:22:30;;;;;;;1.80;1.80;;;4.50;99.90;;;;;;5099383;28;20636;-77
2023/12/16 04:24:59;;;;;;;2.03;1.92;;;4.50;99.90;;;;;;5101844;28;20322;-77
2023/12/16 04:27:26;;;;;;;1.80;1.80;;;4.50;99.90;;;;;;5105177;27;20223;-78
2023/12/16 04:29:53;;;;;;;2.40;2.30;;;4.40;99.90;;;;;;5103395;28;20228;-77
2023/12/16 04:32:21;;;;;;;2.28;2.17;;;4.40;99.90;;;;;;5104751;28;20232;-77
2023/12/16 04:34:48;;;;;;;2.47;2.38;;;4.50;99.90;;;;;;5105631;27;20206;-78
2023/12/16 04:37:15;;;;;;;2.30;2.20;;;4.60;99.90;;;;;;5100124;28;20189;-77
2023/12/16 04:39:42;;;;;;;2.50;2.40;;;4.50;99.90;;;;;;5101035;28;20196;-77
2023/12/16 04:42:11;;;;;;;2.00;2.00;;;4.50;99.90;;;;;;5102095;27;20197;-77
2023/12/16 04:44:38;;;;;;;1.80;1.80;;;4.40;99.90;;;;;;5101802;27;20289;-77
2023/12/16 04:47:05;;;;;;;1.95;1.85;;;4.30;99.90;;;;;;5100762;27;20210;-77
2023/12/16 04:49:32;;;;;;;2.30;2.20;;;4.20;99.90;;;;;;5099497;28;20197;-77
2023/12/16 04:51:59;;;;;;;2.10;2.00;;;4.10;99.90;;;;;;5102934;28;20675;-77
2023/12/16 04:54:28;;;;;;;2.38;2.28;;;4.10;99.90;;;;;;5103691;28;20197;-77
2023/12/16 04:56:55;;;;;;;2.15;2.05;;;4.00;99.90;;;;;;5097397;28;20245;-77
2023/12/16 04:59:23;;;;;;;2.08;1.98;;;4.00;99.90;;;;;;5101533;28;20224;-77
2023/12/16 05:01:50;;;;;;;2.38;2.28;;;4.00;99.90;;;;;;5101466;27;20201;-78
2023/12/16 05:04:17;;;;;;;2.45;2.35;;;4.00;99.90;;;;;;5102194;28;20302;-77
2023/12/16 05:06:44;;;;;;;2.22;2.13;;;4.00;99.90;;;;;;5106180;28;20249;-77
2023/12/16 05:09:12;;;;;;;2.03;1.92;;;4.00;99.90;;;;;;5103470;27;20220;-77
2023/12/16 05:11:39;;;;;;;2.33;2.22;;;4.00;99.90;;;;;;5103241;28;20224;-77
2023/12/16 05:14:06;;;;;;;2.20;2.10;;;4.10;99.90;;;;;;5103614;27;20217;-79
2023/12/16 05:16:35;;;;;;;2.40;2.30;;;4.10;99.90;;;;;;5104180;28;20213;-78
2023/12/16 05:19:03;;;;;;;2.45;2.35;;;4.20;99.90;;;;;;5103413;28;20229;-77
2023/12/16 05:21:30;;;;;;;2.60;2.50;;;4.20;99.90;;;;;;5098855;28;20212;-76
2023/12/16 05:23:57;;;;;;;2.63;2.53;;;4.10;99.90;;;;;;5101868;28;20221;-78
2023/12/16 05:26:24;;;;;;;2.30;2.20;;;4.00;99.90;;;;;;5100980;28;20710;-77
2023/12/16 05:28:51;;;;;;;2.35;2.25;;;3.90;99.90;;;;;;5100191;27;20300;-79
2023/12/16 05:31:18;;;;;;;2.33;2.22;;;3.90;99.90;;;;;;5100650;27;20189;-77
2023/12/16 05:33:47;;;;;;;2.13;2.03;;;3.90;99.90;;;;;;5100145;28;20235;-77
2023/12/16 05:36:14;;;;;;;2.17;2.08;;;3.90;99.90;;;;;;5099024;28;20371;-78
2023/12/16 05:38:41;;;;;;;2.10;2.00;;;3.80;99.90;;;;;;5099323;28;20731;-78
2023/12/16 05:41:08;;;;;;;2.30;2.20;;;3.80;99.90;;;;;;5101138;28;20193;-77
2023/12/16 05:43:35;;;;;;;2.33;2.22;;;3.80;99.90;;;;;;5102672;28;20211;-77
2023/12/16 05:46:02;;;;;;;2.50;2.40;;;3.90;99.90;;;;;;5105260;28;20225;-77
2023/12/16 05:48:31;;;;;;;2.20;2.10;;;3.90;99.90;;;;;;5098082;28;20213;-77
2023/12/16 05:51:00;;;;;;;2.40;2.30;;;3.90;99.90;;;;;;5101421;28;20347;-77
2023/12/16 05:53:27;;;;;;;2.20;2.10;;;3.80;99.90;;;;;;5105545;28;20212;-77
2023/12/16 05:55:54;;;;;;;2.33;2.22;;;3.80;99.90;;;;;;5102849;28;20216;-77
2023/12/16 05:58:21;;;;;;;2.40;2.30;;;3.90;99.90;;;;;;5101631;27;20213;-76
2023/12/16 06:00:48;;;;;;;2.20;2.10;;;3.80;99.90;;;;;;5100343;28;20209;-77
2023/12/16 06:03:15;;;;;;;2.47;2.38;;;3.80;99.90;;;;;;5104778;27;20228;-77
2023/12/16 06:05:42;;;;;;;2.58;2.40;;;3.80;99.90;;;;;;5099420;28;20221;-77
2023/12/16 06:08:10;;;;;;;2.20;2.10;;;3.70;99.90;;;;;;5104741;28;20213;-77
2023/12/16 06:10:37;;;;;;;2.50;2.40;;;3.70;99.90;;;;;;5099611;28;20702;-76
2023/12/16 06:13:04;;;;;;;2.13;2.03;;;3.60;99.90;;;;;;5097107;28;20214;-77
2023/12/16 06:15:31;;;;;;;2.47;2.38;;;3.60;99.90;;;;;;5101902;28;20668;-77
2023/12/16 06:18:02;;;;;;;2.42;2.33;;;3.60;99.90;;;;;;5102217;27;20727;-77
2023/12/16 06:20:29;;;;;;;3.30;2.28;;;3.60;99.90;;;;;;5103067;28;20205;-77
2023/12/16 06:22:56;;;;;;;2.30;2.20;;;3.60;99.90;;;;;;5099742;27;20214;-76
2023/12/16 06:25:25;;;;;;;2.35;2.25;;;3.60;99.90;;;;;;5081208;28;20221;-77
2023/12/16 06:27:52;;;;;;;2.45;2.35;;;3.60;99.90;;;;;;5088957;27;20236;-77
2023/12/16 06:30:19;;;;;;;2.33;2.22;;;3.60;99.90;;;;;;5099163;27;20220;-76
2023/12/16 06:32:46;;;;;;;2.58;2.47;;;3.60;99.90;;;;;;5093169;28;20218;-77
2023/12/16 06:35:13;;;;;;;2.50;2.40;;;3.60;99.90;;;;;;5082902;28;20261;-76
2023/12/16 06:37:40;;;;;;;1.90;1.80;;;3.60;99.90;;;;;;5083359;28;20226;-77
2023/12/16 06:40:08;;;;;;;2.60;2.50;;;3.60;99.90;;;;;;5080541;28;20217;-77
2023/12/16 06:42:37;;;;;;;2.60;2.50;;;3.50;99.90;;;;;;5085695;28;20220;-76
2023/12/16 06:45:05;;;;;;;2.60;2.50;;;3.50;99.90;;;;;;5102227;28;20758;-77
2023/12/16 06:47:32;;;;;;;2.50;2.40;;;3.40;99.90;;;;;;5097030;27;20222;-77
2023/12/16 06:49:59;;;;;;;2.60;2.50;;;3.40;99.90;;;;;;5082904;28;20195;-78
2023/12/16 06:52:26;;;;;;;2.63;2.53;;;3.50;99.90;;;;;;5089840;28;20213;-77
2023/12/16 06:54:53;;;;;;;2.63;2.53;;;3.50;99.90;;;;;;5101170;28;20652;-77
2023/12/16 06:57:20;;;;;;;2.60;2.50;;;3.50;99.90;;;;;;5102911;27;20220;-77
2023/12/16 06:59:49;;;;;;;2.50;2.40;;;3.50;99.90;;;;;;5101282;28;20217;-77
2023/12/16 07:02:16;;;;;;;2.60;2.50;;;3.60;99.90;;;;;;5101762;28;20204;-77
2023/12/16 07:04:43;;;;;;;2.92;2.83;;;3.60;99.90;;;;;;5079763;28;20201;-77
2023/12/16 07:07:10;;;;;;;3.60;3.40;;;3.60;99.90;;;;;;5082613;28;20693;-77
2023/12/16 07:09:37;;;;;;;3.03;2.83;;;3.60;99.90;;;;;;5097684;28;20208;-77
2023/12/16 07:12:05;;;;;;;2.83;2.72;;;3.70;99.90;;;;;;5101935;28;20205;-77
2023/12/16 07:14:33;;;;;;;2.58;2.47;;;3.70;99.90;;;;;;5078074;28;20202;-77
2023/12/16 07:17:02;;;;;;;2.90;2.70;;;3.80;99.90;;;;;;5083362;27;20858;-77
2023/12/16 07:19:31;;;;;;;2.67;2.58;;;3.80;99.90;;;;;;5101166;28;20224;-77
2023/12/16 07:21:58;;;;;;;2.67;2.58;;;3.80;99.90;;;;;;5102991;27;20207;-78
2023/12/16 07:24:25;;;;;;;2.60;2.50;;;3.80;99.90;;;;;;5103433;28;20201;-77
2023/12/16 07:26:52;;;;;;;2.80;2.70;;;3.80;99.90;;;;;;5102670;28;20221;-77
2023/12/16 07:29:20;;;;;;;3.05;2.85;;;3.70;99.90;;;;;;5076384;28;20218;-77
2023/12/16 07:31:47;;;;;;;3.00;2.80;;;3.70;99.90;;;;;;5083862;28;20243;-78
2023/12/16 07:34:16;;;;;;;2.55;2.45;;;3.80;99.90;;;;;;5077175;28;20217;-76
2023/12/16 07:36:43;;;;;;;2.85;2.75;;;3.80;99.90;;;;;;5073791;28;20224;-78
2023/12/16 07:39:10;;;;;;;2.92;2.72;;;3.80;99.90;;;;;;5080914;28;20221;-77
2023/12/16 07:41:37;;;;;;;3.05;2.92;;;3.90;99.90;;;;;;5075738;28;20205;-78
2023/12/16 07:44:05;;;;;;;3.92;3.63;;;3.80;99.90;;;;;;5075200;28;20736;-77
2023/12/16 07:46:32;;;;;;;3.50;3.30;;;3.80;99.90;;;;;;5088838;28;20232;-77
2023/12/16 07:48:59;;;;;;;4.10;3.80;;;3.70;99.90;;;;;;5079622;28;20254;-77
2023/12/16 07:51:27;;;;;;;3.60;3.40;;;3.60;99.90;;;;;;5079560;28;20197;-76
2023/12/16 07:53:55;;;;;;;3.13;2.92;;;3.60;99.90;;;;;;5075005;28;20224;-77
2023/12/16 07:56:24;;;;;;;4.32;4.03;;;3.50;99.90;;;;;;5080135;28;20699;-77
2023/12/16 07:58:51;;;;;;;3.60;3.38;;;3.50;99.90;;;;;;5077790;28;20589;-77
2023/12/16 08:01:19;;;;;;;3.78;3.58;;;3.60;99.90;;;;;;5084029;28;20201;-77
2023/12/16 08:03:47;;;;;;;3.30;3.10;;;3.50;99.90;;;;;;5074590;28;20253;-76
2023/12/16 08:06:16;;;;;;;3.47;3.28;;;3.50;99.90;;;;;;5079113;28;20252;-77
2023/12/16 08:08:46;;;;;;;3.35;3.15;;;3.60;99.90;;;;;;5074398;28;20235;-77
2023/12/16 08:11:13;;;;;;;3.65;3.45;;;3.60;99.90;;;;;;5081781;28;20236;-77
2023/12/16 08:13:41;;;;;;;3.17;2.97;;;3.60;99.90;;;;;;5078298;28;20627;-77
2023/12/16 08:16:10;;;;;;;3.20;3.10;;;3.80;99.90;;;;;;5077631;28;20233;-76
2023/12/16 08:18:37;;;;;;;3.10;2.90;;;4.90;99.90;;;;;;5096466;28;20217;-76
2023/12/16 08:21:05;;;;;;;3.25;3.13;;;6.20;99.90;;;;;;5101994;28;20655;-78
2023/12/16 08:23:32;;;;;;;2.53;2.42;;;7.30;99.90;;;;;;5103126;28;20217;-77
2023/12/16 08:26:01;;;;;;;2.92;2.83;;;8.20;99.90;;;;;;5103640;28;20331;-78
2023/12/16 08:28:28;;;;;;;3.13;3.00;;;9.20;99.90;;;;;;5106580;28;20634;-77
2023/12/16 08:30:55;;;;;;;2.65;2.55;;;9.90;99.90;;;;;;5100156;28;20197;-78
2023/12/16 08:33:22;;;;;;;2.45;2.35;;;10.60;99.90;;;;;;5100858;28;20224;-76
2023/12/16 08:35:49;;;;;;;2.17;2.08;;;11.10;99.90;;;;;;5112601;28;20224;-78
2023/12/16 08:38:16;;;;;;;2.45;2.35;;;11.70;99.90;;;;;;5099848;28;20256;-79
2023/12/16 08:40:45;;;;;;;2.38;2.17;;;12.30;99.90;;;;;;5097961;28;20206;-77
2023/12/16 08:43:13;;;;;;;2.13;1.98;;;12.50;99.90;;;;;;5100590;28;20271;-78
2023/12/16 08:45:40;;;;;;;2.00;1.90;;;12.80;99.90;;;;;;5097708;28;20217;-78
2023/12/16 08:48:07;;;;;;;2.00;1.90;;;13.40;99.90;;;;;;5103547;28;20220;-78
2023/12/16 08:50:34;;;;;;;2.30;2.10;;;14.00;99.90;;;;;;5106550;28;20212;-79
2023/12/16 08:53:01;;;;;;;2.08;1.98;;;14.70;99.90;;;;;;5103626;27;20221;-78
2023/12/16 08:55:28;;;;;;;1.90;1.80;;;15.40;99.50;;;;;;5102537;28;20220;-79
2023/12/16 08:57:56;;;;;;;1.95;1.80;;;16.20;97.20;;;;;;5101460;28;20295;-78
2023/12/16 09:00:25;;;;;;;1.75;1.65;;;16.80;94.70;;;;;;5102938;28;20648;-78
2023/12/16 09:02:52;;;;;;;1.70;1.65;;;17.30;93.80;;;;;;5104436;28;20925;-79
2023/12/16 09:05:19;;;;;;;1.88;1.77;;;17.90;91.60;;;;;;5107523;28;20216;-78
2023/12/16 09:07:47;;;;;;;1.90;1.80;;;18.40;92.00;;;;;;5107734;28;20225;-80
2023/12/16 09:10:14;;;;;;;1.85;1.75;;;18.90;90.50;;;;;;5100380;28;20201;-80
2023/12/16 09:12:41;;;;;;;1.60;1.50;;;19.80;85.10;;;;;;5109460;28;20225;-79
2023/12/16 09:15:09;;;;;;;1.95;1.85;;;20.90;74.50;;;;;;5108982;27;20228;-80
2023/12/16 09:17:36;;;;;;;1.90;1.80;;;21.70;73.70;;;;;;5116914;27;20217;-80
2023/12/16 09:20:04;;;;;;;2.03;1.80;;;22.60;69.50;;;;;;5113919;27;20220;-77
2023/12/16 09:22:31;;;;;;;2.22;1.83;;;23.50;67.50;;;;;;5107516;27;20213;-80
2023/12/16 09:24:58;;;;;;;1.95;1.85;;;23.90;63.70;;;;;;5102846;28;20702;-79
2023/12/16 09:27:25;;;;;;;2.28;1.90;;;24.20;62.20;;;;;;5109076;27;20217;-78
2023/12/16 09:29:52;;;;;;;2.20;2.00;;;24.50;64.10;;;;;;5105808;27;20294;-80
2023/12/16 09:32:19;;;;;;;1.80;1.70;;;24.70;60.60;;;;;;5106035;28;20224;-77
2023/12/16 09:34:48;;;;;;;2.08;1.88;;;24.90;60.00;;;;;;5106800;28;20200;-77
2023/12/16 09:37:15;;;;;;;1.75;1.60;;;25.20;55.40;;;;;;5104592;27;20197;-77
2023/12/16 09:39:42;;;;;;;5.32;1.63;;;25.30;53.20;;;;;;5104869;28;20431;-78
2023/12/16 09:42:13;;;;;;;1.75;1.63;;;24.90;50.00;;;;;;5110916;28;20718;-76
2023/12/16 09:44:42;;;;;;;2.35;1.80;;;24.50;51.20;;;;;;5109687;27;20254;-78
2023/12/16 09:47:11;;;;;;;1.92;1.83;;;24.10;53.40;;;;;;5110057;27;20552;-79
2023/12/16 09:49:41;;;;;;;2.25;2.05;;;24.00;54.70;;;;;;5113135;28;20204;-78
2023/12/16 09:52:09;;;;;;;8.45;7.55;;;24.50;55.80;;;;;;5104103;27;20259;-77
2023/12/16 09:54:38;;;;;;;7.20;6.50;;;24.80;52.60;;;;;;5107647;28;20268;-77
2023/12/16 09:57:08;;;;;;;6.07;3.70;;;24.70;53.80;;;;;;5116507;27;20639;-78
2023/12/16 09:59:36;;;;;;;3.78;2.50;;;23.20;54.00;;;;;;5113151;28;20585;-79
2023/12/16 10:02:04;;;;;;;2.83;2.63;;;21.40;55.70;;;;;;5110033;28;20201;-76
2023/12/16 10:04:33;;;;;;;2.40;2.20;;;19.60;62.10;;;;;;5104072;28;20239;-77
2023/12/16 10:07:00;;;;;;;2.53;2.33;;;18.50;65.10;;;;;;5106741;28;20222;-77
2023/12/16 10:09:28;;;;;;;2.60;2.40;;;17.50;65.60;;;;;;5104744;28;20826;-77
2023/12/16 10:11:59;;;;;;;3.20;2.28;;;16.70;70.40;;;;;;5110277;28;20201;-77
2023/12/16 10:14:26;;;;;;;1.88;1.77;;;16.00;72.80;;;;;;5108829;28;20220;-77
2023/12/16 10:17:02;;;;;;;2.28;2.08;;;15.60;71.90;;;;;;5114418;28;20634;-77
2023/12/16 10:19:29;;;;;;;2.70;2.33;;;15.30;74.00;;;;;;5112208;27;20707;-77
2023/12/16 10:21:57;;;;;;;3.05;2.40;;;15.40;75.50;;;;;;5101310;28;20626;-79
2023/12/16 10:24:24;;;;;;;2.90;2.70;;;15.30;76.70;;;;;;5108230;27;20211;-77
2023/12/16 10:26:53;;;;;;;2.67;2.47;;;15.10;77.10;;;;;;5106971;28;20229;-78
2023/12/16 10:29:20;;;;;;;4.53;2.45;;;15.00;78.40;;;;;;5104901;28;20220;-79
2023/12/16 10:31:47;;;;;;;2.67;2.47;;;15.00;79.40;;;;;;5108112;28;20204;-80
2023/12/16 10:34:17;;;;;;;5.85;3.08;;;15.00;79.30;;;;;;5107973;28;20303;-78
2023/12/16 10:36:44;;;;;;;2.83;2.58;;;14.60;78.70;;;;;;5102199;28;20220;-78
2023/12/16 10:39:11;;;;;;;3.15;2.88;;;14.30;79.90;;;;;;5107419;27;20213;-77
2023/12/16 10:41:38;;;;;;;3.72;3.33;;;13.80;81.10;;;;;;5104999;27;20201;-78
2023/12/16 10:44:06;;;;;;;3.05;2.83;;;13.50;82.30;;;;;;5104567;27;20225;-79
2023/12/16 10:46:36;;;;;;;3.20;3.00;;;13.50;84.40;;;;;;5103887;27;20228;-78
2023/12/16 10:49:06;;;;;;;3.65;3.35;;;13.50;84.50;;;;;;5100549;28;20282;-77
2023/12/16 10:51:38;;;;;;;3.70;3.40;;;13.20;85.60;;;;;;5099192;27;20201;-79
2023/12/16 10:54:09;;;;;;;4.00;3.65;;;13.40;86.50;;;;;;5105579;27;20228;-77
2023/12/16 10:56:41;;;;;;;4.32;3.90;;;13.20;86.70;;;;;;5104396;28;20638;-78
2023/12/16 10:59:19;;;;;;;4.32;3.92;;;13.30;87.20;;;;;;5103609;28;20220;-77
2023/12/16 11:01:49;;;;;;;3.90;3.50;;;13.00;87.00;;;;;;5102032;28;20197;-78
2023/12/16 11:04:24;;;;;;;3.30;3.00;;;12.70;88.40;;;;;;5107540;28;20219;-77
2023/12/16 11:06:57;;;;;;;3.40;3.10;;;12.40;88.60;;;;;;5101371;28;20640;-78
2023/12/16 11:09:24;;;;;;;3.53;3.22;;;12.10;88.90;;;;;;5094207;28;20221;-78
2023/12/16 11:11:53;;;;;;;3.50;2.90;;;11.50;89.90;;;;;;5098045;28;20212;-77
2023/12/16 11:14:23;;;;;;;3.60;3.30;;;11.40;90.90;;;;;;5098005;28;20217;-77
2023/12/16 11:17:03;;;;;;;5.00;3.20;;;11.50;90.80;;;;;;5105889;27;20217;-77
2023/12/16 11:19:34;;;;;;;3.55;3.25;;;11.30;91.10;;;;;;5099477;27;20266;-78
2023/12/16 11:22:02;;;;;;;3.00;2.80;;;11.40;91.70;;;;;;5104320;28;20209;-78
2023/12/16 11:24:29;;;;;;;3.22;2.92;;;11.60;91.30;;;;;;5109620;28;20217;-78
2023/12/16 11:26:56;;;;;;;3.55;3.25;;;11.50;91.50;;;;;;5100757;28;20225;-77
2023/12/16 11:29:25;;;;;;;2.83;2.63;;;11.60;91.70;;;;;;5102564;28;20228;-77
2023/12/16 11:31:53;;;;;;;4.78;3.15;;;11.80;91.70;;;;;;5107919;27;20197;-81
2023/12/16 11:34:44;;;;;;;3.38;2.90;;;12.20;91.00;;;;;;5109571;27;20257;-77
2023/12/16 11:37:12;;;;;;;3.08;2.60;;;12.10;90.60;;;;;;5104053;28;20211;-79
2023/12/16 11:39:40;;;;;;;3.40;3.10;;;12.10;91.20;;;;;;5106643;28;20201;-77
2023/12/16 11:42:09;;;;;;;3.95;3.15;;;12.10;90.80;;;;;;5104742;28;20197;-77
2023/12/16 11:44:50;;;;;;;3.03;2.72;;;11.80;90.60;;;;;;5104660;28;20618;-78
2023/12/16 11:47:25;;;;;;;3.90;3.47;;;11.70;90.40;;;;;;5103608;28;20813;-78
2023/12/16 11:49:53;;;;;;;4.93;3.47;;;11.50;91.00;;;;;;5106483;28;20656;-77
2023/12/16 11:52:21;;;;;;;3.03;2.78;;;11.50;91.30;;;;;;5102081;28;20304;-78
2023/12/16 11:54:52;;;;;;;3.08;2.78;;;11.80;91.90;;;;;;5102364;27;20224;-78
2023/12/16 11:57:23;;;;;;;2.70;2.50;;;12.10;91.20;;;;;;5102226;28;20240;-78
2023/12/16 11:59:52;;;;;;;2.58;2.38;;;12.20;90.10;;;;;;5108644;28;20224;-77
2023/12/16 12:02:20;;;;;;;2.13;2.03;;;12.30;90.40;;;;;;5106169;28;20555;-78
2023/12/16 12:04:47;;;;;;;2.75;2.55;;;12.50;89.60;;;;;;5100265;27;20203;-79
2023/12/16 12:07:15;;;;;;;2.50;2.30;;;12.80;89.10;;;;;;5101711;27;20197;-78
2023/12/16 12:09:43;;;;;;;2.92;2.72;;;12.90;89.90;;;;;;5098523;28;20197;-77
2023/12/16 12:12:12;;;;;;;3.20;2.63;;;13.00;90.00;;;;;;5098037;28;20211;-78
2023/12/16 12:14:42;;;;;;;3.95;2.58;;;13.00;90.00;;;;;;5101406;28;20196;-78
2023/12/16 12:17:11;;;;;;;2.92;2.72;;;13.00;89.30;;;;;;5102542;28;20197;-78
2023/12/16 12:19:38;;;;;;;2.10;2.00;;;13.00;89.10;;;;;;5101352;28;20216;-77
2023/12/16 12:22:06;;;;;;;2.38;2.22;;;13.00;88.60;;;;;;5103317;28;20226;-78
2023/12/16 12:24:33;;;;;;;2.25;2.10;;;13.00;86.80;;;;;;5099391;28;20227;-77
2023/12/16 12:27:00;;;;;;;2.60;2.40;;;12.60;82.70;;;;;;5101780;28;20231;-78
2023/12/16 12:29:28;;;;;;;2.35;2.15;;;12.40;86.70;;;;;;5101485;28;20312;-78
2023/12/16 12:31:57;;;;;;;3.80;2.50;;;12.30;89.30;;;;;;5098589;28;20201;-78
2023/12/16 12:34:25;;;;;;;2.38;2.20;;;12.30;90.00;;;;;;5101253;28;20217;-77
2023/12/16 12:36:56;;;;;;;2.67;2.47;;;12.20;89.60;;;;;;5097751;28;20809;-78
2023/12/16 12:39:23;;;;;;;2.25;2.05;;;12.30;90.00;;;;;;5100113;28;20241;-78
2023/12/16 12:42:01;;;;;;;2.42;2.22;;;12.30;88.30;;;;;;5102284;28;21595;-79
2023/12/16 12:44:30;;;;;;;2.88;2.22;;;12.30;89.20;;;;;;5103226;28;20244;-77
2023/12/16 12:46:58;;;;;;;2.33;2.22;;;12.60;89.90;;;;;;5104953;27;20220;-79
2023/12/16 12:49:32;;;;;;;2.70;2.50;;;12.70;89.00;;;;;;5103540;28;20217;-79
2023/12/16 12:52:00;;;;;;;2.45;2.10;;;12.90;88.40;;;;;;5101892;28;20200;-78
2023/12/16 12:54:27;;;;;;;2.40;2.25;;;13.00;88.10;;;;;;5106173;28;20216;-79
2023/12/16 12:56:54;;;;;;;2.33;2.13;;;13.00;88.00;;;;;;5108835;27;20838;-79
2023/12/16 12:59:21;;;;;;;2.60;2.40;;;13.10;88.80;;;;;;5106260;27;20221;-80
2023/12/16 13:01:48;;;;;;;9.90;2.40;;;12.80;89.30;;;;;;5103955;28;20713;-78
2023/12/16 13:04:16;;;;;;;2.70;2.50;;;12.50;89.80;;;;;;5098521;28;20213;-77
2023/12/16 13:06:44;;;;;;;2.90;2.70;;;12.40;90.30;;;;;;5108069;27;20224;-77
2023/12/16 13:09:11;;;;;;;2.80;2.50;;;12.10;90.60;;;;;;5107386;27;20652;-77
2023/12/16 13:11:38;;;;;;;2.25;2.08;;;12.00;90.40;;;;;;5106617;27;20193;-79
2023/12/16 13:14:05;;;;;;;2.83;2.47;;;11.90;88.70;;;;;;5104361;28;20227;-77
2023/12/16 13:16:33;;;;;;;2.45;2.25;;;11.60;90.10;;;;;;5102320;28;20695;-77